Time;durP1;ratioP1;P1;durP2;ratioP2;P2;SDS_P1;SDS_P2;PMS_P1;PMS_P2;Temp;Humidity;BMP_temperature;BMP_pressure;BME280_temperature;BME280_humidity;BME280_pressure;Samples;Min_cycle;Max_cycle;Signal;HPM_P1;HPM_P2
2023/01/20 00:01:37;;;;;;;;;;;16.30;43.00;;;;;;5095601;28;19926;-67
2023/01/20 00:04:03;;;;;;;;;;;16.30;42.90;;;;;;5094081;28;19931;-67
2023/01/20 00:06:29;;;;;;;;;;;16.20;42.90;;;;;;5100769;28;20008;-67
2023/01/20 00:08:56;;;;;;;;;;;16.20;42.80;;;;;;5094199;28;20018;-67
2023/01/20 00:11:24;;;;;;;;;;;16.20;42.90;;;;;;5095392;28;19920;-68
2023/01/20 00:13:54;;;;;;;;;;;16.20;42.90;;;;;;5094145;28;19960;-67
2023/01/20 00:16:20;;;;;;;;;;;16.20;42.90;;;;;;5095383;28;19973;-68
2023/01/20 00:18:45;;;;;;;;;;;16.20;42.90;;;;;;5095394;28;19920;-68
2023/01/20 00:21:12;;;;;;;;;;;16.20;42.90;;;;;;5095156;28;19924;-67
2023/01/20 00:23:38;;;;;;;;;;;16.20;42.90;;;;;;5093983;28;19950;-67
2023/01/20 00:26:08;;;;;;;;;;;16.20;42.90;;;;;;5095358;28;19947;-68
2023/01/20 00:28:34;;;;;;;;;;;16.20;42.90;;;;;;5093826;28;19973;-67
2023/01/20 00:31:17;;;;;;;;;;;16.20;42.90;;;;;;5093911;28;19920;-67
2023/01/20 00:33:43;;;;;;;;;;;16.20;42.90;;;;;;5109864;28;20328;-66
2023/01/20 00:36:09;;;;;;;;;;;16.20;42.90;;;;;;5115699;28;19920;-67
2023/01/20 00:38:35;;;;;;;;;;;16.20;42.90;;;;;;5114274;28;20007;-67
2023/01/20 00:41:00;;;;;;;;;;;16.20;42.90;;;;;;5114084;28;20264;-68
2023/01/20 00:43:29;;;;;;;;;;;16.20;42.80;;;;;;5115205;28;19932;-67
2023/01/20 00:45:54;;;;;;;;;;;16.10;42.90;;;;;;5114270;28;20004;-67
2023/01/20 00:48:20;;;;;;;;;;;16.10;42.90;;;;;;5115144;28;20339;-67
2023/01/20 00:50:45;;;;;;;;;;;16.10;42.90;;;;;;5113842;28;19959;-67
2023/01/20 00:53:11;;;;;;;;;;;16.10;42.90;;;;;;5114968;28;20008;-66
2023/01/20 00:55:36;;;;;;;;;;;16.10;42.90;;;;;;5115048;28;19926;-66
2023/01/20 00:58:02;;;;;;;;;;;16.10;42.90;;;;;;5113942;28;20289;-67
2023/01/20 01:00:27;;;;;;;;;;;16.10;42.90;;;;;;5113110;28;19926;-67
2023/01/20 01:02:53;;;;;;;;;;;16.20;42.90;;;;;;5113368;28;20023;-67
2023/01/20 01:05:18;;;;;;;;;;;16.30;42.80;;;;;;5114731;28;20014;-67
2023/01/20 01:07:44;;;;;;;;;;;16.50;42.70;;;;;;5113733;28;19931;-67
2023/01/20 01:10:09;;;;;;;;;;;16.70;42.40;;;;;;5113552;28;19966;-67
2023/01/20 01:12:35;;;;;;;;;;;17.00;42.10;;;;;;5114715;28;20031;-67
2023/01/20 01:15:01;;;;;;;;;;;17.30;41.70;;;;;;5113673;28;19926;-67
2023/01/20 01:17:26;;;;;;;;;;;17.70;41.30;;;;;;5113115;28;20278;-67
2023/01/20 01:19:52;;;;;;;;;;;18.20;40.50;;;;;;5114522;28;19919;-68
2023/01/20 01:22:18;;;;;;;;;;;18.70;39.80;;;;;;5113184;28;19928;-67
2023/01/20 01:24:43;;;;;;;;;;;19.10;39.10;;;;;;5113134;28;19924;-67
2023/01/20 01:27:09;;;;;;;;;;;19.60;38.60;;;;;;5114803;28;19927;-67
2023/01/20 01:29:35;;;;;;;;;;;19.90;37.90;;;;;;5113359;28;20046;-67
2023/01/20 01:32:01;;;;;;;;;;;20.20;37.30;;;;;;5111427;28;19964;-67
2023/01/20 01:34:26;;;;;;;;;;;20.50;37.00;;;;;;5092985;28;19951;-67
2023/01/20 01:36:52;;;;;;;;;;;20.80;36.50;;;;;;5093751;28;19920;-67
2023/01/20 01:39:17;;;;;;;;;;;20.90;36.20;;;;;;5093765;28;19920;-67
2023/01/20 01:41:43;;;;;;;;;;;21.10;35.90;;;;;;5092729;28;20294;-67
2023/01/20 01:44:11;;;;;;;;;;;21.20;35.70;;;;;;5092853;28;20294;-67
2023/01/20 01:46:36;;;;;;;;;;;21.30;35.40;;;;;;5092729;28;19922;-67
2023/01/20 01:49:07;;;;;;;;;;;21.30;35.20;;;;;;5092317;28;20418;-67
2023/01/20 01:51:37;;;;;;;;;;;21.30;35.20;;;;;;5093314;28;20264;-67
2023/01/20 01:54:08;;;;;;;;;;;21.30;35.20;;;;;;5092602;28;19989;-67
2023/01/20 01:56:34;;;;;;;;;;;21.20;35.20;;;;;;5092519;28;19924;-67
2023/01/20 01:59:01;;;;;;;;;;;21.10;35.30;;;;;;5093537;28;20023;-67
2023/01/20 02:01:27;;;;;;;;;;;21.00;36.20;;;;;;5093471;28;19920;-67
2023/01/20 02:03:54;;;;;;;;;;;20.90;35.70;;;;;;5091608;28;19978;-67
2023/01/20 02:06:21;;;;;;;;;;;20.80;35.60;;;;;;5091941;28;19920;-67
2023/01/20 02:08:47;;;;;;;;;;;20.80;35.60;;;;;;5092571;28;20371;-67
2023/01/20 02:11:13;;;;;;;;;;;20.60;35.80;;;;;;5091347;28;19920;-67
2023/01/20 02:13:38;;;;;;;;;;;20.60;35.90;;;;;;5093078;28;19920;-67
2023/01/20 02:19:04;;;;;;;;;;;20.40;35.90;;;;;;5144639;27;20359;-68
2023/01/20 02:21:52;;;;;;;;;;;20.30;36.00;;;;;;5129802;28;19920;-67
2023/01/20 02:24:38;;;;;;;;;;;20.30;36.20;;;;;;5129542;28;19919;-67
2023/01/20 02:27:07;;;;;;;;;;;20.30;36.10;;;;;;5129033;28;19927;-67
2023/01/20 02:32:36;;;;;;;;;;;20.30;36.00;;;;;;5144881;27;19918;-67
2023/01/20 02:35:08;;;;;;;;;;;20.30;36.00;;;;;;5129835;28;19980;-67
2023/01/20 02:37:39;;;;;;;;;;;20.40;36.00;;;;;;5130609;27;19927;-69
2023/01/20 02:40:24;;;;;;;;;;;20.50;36.00;;;;;;5129697;28;20386;-70
2023/01/20 02:48:45;;;;;;;;;;;20.60;35.60;;;;;;5144617;27;19918;-67
2023/01/20 02:51:13;;;;;;;;;;;20.70;35.60;;;;;;5129446;28;19928;-67
2023/01/20 02:53:44;;;;;;;;;;;20.80;35.50;;;;;;5129523;28;19919;-67
2023/01/20 02:56:10;;;;;;;;;;;20.70;35.30;;;;;;5130695;27;20014;-67
2023/01/20 02:58:40;;;;;;;;;;;20.80;35.50;;;;;;5128713;28;19919;-68
2023/01/20 03:01:11;;;;;;;;;;;20.70;35.40;;;;;;5129386;28;19919;-67
2023/01/20 03:03:37;;;;;;;;;;;20.70;35.50;;;;;;5129223;28;20402;-67
2023/01/20 03:06:06;;;;;;;;;;;20.70;35.60;;;;;;5129200;28;19958;-68
2023/01/20 03:08:32;;;;;;;;;;;20.60;35.60;;;;;;5129448;28;19946;-67
2023/01/20 03:11:01;;;;;;;;;;;20.60;35.50;;;;;;5130458;27;19919;-67
2023/01/20 03:16:22;;;;;;;;;;;20.50;35.70;;;;;;5144963;27;19912;-67
2023/01/20 03:18:48;;;;;;;;;;;20.50;35.70;;;;;;5130831;27;20085;-67
2023/01/20 03:21:14;;;;;;;;;;;20.40;35.60;;;;;;5129492;28;19919;-67
2023/01/20 03:23:41;;;;;;;;;;;20.40;35.80;;;;;;5129303;27;19920;-67
2023/01/20 03:26:08;;;;;;;;;;;20.30;35.80;;;;;;5130622;27;20294;-67
2023/01/20 03:28:34;;;;;;;;;;;20.20;35.80;;;;;;5129524;27;19919;-67
2023/01/20 03:31:08;;;;;;;;;;;20.20;35.80;;;;;;5129598;28;20378;-67
2023/01/20 03:33:33;;;;;;;;;;;20.20;36.00;;;;;;5129091;28;19962;-67
2023/01/20 03:35:59;;;;;;;;;;;20.20;35.90;;;;;;5130419;27;19959;-67
2023/01/20 03:38:24;;;;;;;;;;;20.20;36.00;;;;;;5129453;27;19920;-67
2023/01/20 03:41:10;;;;;;;;;;;20.30;35.90;;;;;;5130482;28;19919;-67
2023/01/20 03:43:40;;;;;;;;;;;20.30;36.00;;;;;;5128869;28;19924;-67
2023/01/20 03:46:11;;;;;;;;;;;20.30;35.80;;;;;;5130424;27;20348;-67
2023/01/20 03:48:39;;;;;;;;;;;20.40;35.80;;;;;;5129256;28;20006;-68
2023/01/20 03:51:12;;;;;;;;;;;20.40;35.70;;;;;;5130084;27;19920;-67
2023/01/20 03:53:44;;;;;;;;;;;20.50;35.70;;;;;;5129936;28;19920;-67
2023/01/20 03:58:56;;;;;;;;;;;20.50;35.60;;;;;;4594773;27;15708993;-67
2023/01/20 04:01:23;;;;;;;;;;;20.50;35.40;;;;;;5153626;27;19919;-68
2023/01/20 04:03:51;;;;;;;;;;;20.60;35.50;;;;;;5153464;27;19968;-67
2023/01/20 04:06:18;;;;;;;;;;;20.60;35.50;;;;;;5164136;27;19925;-67
2023/01/20 04:08:46;;;;;;;;;;;20.60;35.40;;;;;;5132586;27;19932;-67
2023/01/20 04:11:12;;;;;;;;;;;20.50;35.50;;;;;;5132765;27;19964;-67
2023/01/20 04:13:38;;;;;;;;;;;20.60;35.50;;;;;;5151224;27;19924;-67
2023/01/20 04:16:08;;;;;;;;;;;20.60;35.40;;;;;;5151054;27;19926;-67
2023/01/20 04:18:33;;;;;;;;;;;20.60;35.40;;;;;;5132503;27;20009;-68
2023/01/20 04:21:01;;;;;;;;;;;20.50;35.30;;;;;;5132802;27;20014;-67
2023/01/20 04:23:31;;;;;;;;;;;20.50;35.60;;;;;;5151203;27;19940;-67
2023/01/20 04:25:56;;;;;;;;;;;20.50;35.70;;;;;;5132368;27;19966;-67
2023/01/20 04:28:22;;;;;;;;;;;20.40;35.50;;;;;;5132399;27;19958;-67
2023/01/20 04:30:50;;;;;;;;;;;20.40;35.50;;;;;;5132645;27;19923;-67
2023/01/20 04:33:16;;;;;;;;;;;20.40;35.60;;;;;;5132566;27;19926;-67
2023/01/20 04:35:42;;;;;;;;;;;20.30;35.60;;;;;;5150761;27;19919;-67
2023/01/20 04:38:07;;;;;;;;;;;20.30;35.60;;;;;;5150745;27;19933;-67
2023/01/20 04:40:33;;;;;;;;;;;20.30;35.70;;;;;;5150622;27;19920;-67
2023/01/20 04:42:58;;;;;;;;;;;20.20;35.70;;;;;;5150736;27;19926;-67
2023/01/20 04:45:24;;;;;;;;;;;20.20;35.70;;;;;;5132034;27;20461;-68
2023/01/20 04:47:50;;;;;;;;;;;20.20;35.70;;;;;;5131998;27;19919;-67
2023/01/20 04:50:15;;;;;;;;;;;20.20;35.70;;;;;;5131870;27;20010;-67
2023/01/20 04:52:41;;;;;;;;;;;20.00;35.70;;;;;;5131982;27;19923;-67
2023/01/20 04:55:07;;;;;;;;;;;20.10;35.70;;;;;;5132135;27;19926;-67
2023/01/20 04:57:32;;;;;;;;;;;20.10;35.80;;;;;;5131621;27;20002;-67
2023/01/20 04:59:58;;;;;;;;;;;20.20;35.80;;;;;;5131715;27;19919;-67
2023/01/20 05:02:23;;;;;;;;;;;20.10;35.70;;;;;;5150224;27;19919;-67
2023/01/20 05:04:49;;;;;;;;;;;20.10;35.80;;;;;;5150179;27;20251;-67
2023/01/20 05:07:14;;;;;;;;;;;20.10;35.70;;;;;;5150342;27;19926;-67
2023/01/20 05:09:40;;;;;;;;;;;20.10;35.70;;;;;;5139351;27;20408;-67
2023/01/20 05:12:05;;;;;;;;;;;20.20;35.80;;;;;;5118179;27;20277;-67
2023/01/20 05:14:31;;;;;;;;;;;20.20;35.80;;;;;;5136568;27;19920;-67
2023/01/20 05:16:57;;;;;;;;;;;20.20;36.50;;;;;;5117519;27;19924;-67
2023/01/20 05:19:22;;;;;;;;;;;20.20;35.70;;;;;;5136104;27;19919;-68
2023/01/20 05:21:48;;;;;;;;;;;20.20;35.70;;;;;;5136063;27;20060;-67
2023/01/20 05:24:13;;;;;;;;;;;20.30;35.70;;;;;;5117659;27;19927;-67
2023/01/20 05:26:39;;;;;;;;;;;20.30;35.60;;;;;;5136010;27;19930;-67
2023/01/20 05:29:05;;;;;;;;;;;20.40;35.50;;;;;;5117332;27;20365;-67
2023/01/20 05:31:30;;;;;;;;;;;20.40;35.50;;;;;;5135871;27;19952;-67
2023/01/20 05:33:56;;;;;;;;;;;20.40;35.50;;;;;;5135559;27;20367;-68
2023/01/20 05:36:21;;;;;;;;;;;20.50;35.40;;;;;;5138295;27;19977;-67
2023/01/20 05:38:47;;;;;;;;;;;20.50;35.30;;;;;;5156566;27;19927;-67
2023/01/20 05:41:13;;;;;;;;;;;20.50;35.30;;;;;;5156431;27;19927;-67
2023/01/20 05:43:38;;;;;;;;;;;20.60;35.20;;;;;;5137773;27;19930;-67
2023/01/20 05:46:04;;;;;;;;;;;20.50;35.10;;;;;;5138262;27;19919;-67
2023/01/20 05:48:30;;;;;;;;;;;20.60;35.10;;;;;;5156312;27;19919;-67
2023/01/20 05:50:56;;;;;;;;;;;20.60;35.20;;;;;;5137919;27;19967;-67
2023/01/20 05:53:21;;;;;;;;;;;20.60;35.00;;;;;;5137570;27;19954;-67
2023/01/20 05:55:47;;;;;;;;;;;20.60;35.80;;;;;;5156217;27;19919;-67
2023/01/20 05:58:13;;;;;;;;;;;20.60;35.10;;;;;;5137148;27;19923;-67
2023/01/20 06:00:38;;;;;;;;;;;20.60;35.10;;;;;;5137488;27;19934;-67
2023/01/20 06:03:04;;;;;;;;;;;20.50;34.90;;;;;;5137336;27;19919;-67
2023/01/20 06:05:30;;;;;;;;;;;20.50;35.10;;;;;;5155936;27;20063;-67
2023/01/20 06:07:56;;;;;;;;;;;20.50;35.10;;;;;;5137392;27;19926;-67
2023/01/20 06:10:26;;;;;;;;;;;20.50;35.10;;;;;;5155976;27;19919;-67
2023/01/20 06:12:53;;;;;;;;;;;20.50;35.10;;;;;;5155891;27;20293;-67
2023/01/20 06:15:18;;;;;;;;;;;20.50;35.10;;;;;;5155842;27;20014;-67
2023/01/20 06:17:44;;;;;;;;;;;20.50;35.10;;;;;;5155690;27;20017;-67
2023/01/20 06:20:09;;;;;;;;;;;20.40;35.00;;;;;;5154717;27;20373;-68
2023/01/20 06:22:35;;;;;;;;;;;20.40;35.10;;;;;;5155541;27;20021;-67
2023/01/20 06:25:00;;;;;;;;;;;20.40;35.00;;;;;;5155468;27;20270;-67
2023/01/20 06:27:26;;;;;;;;;;;20.40;35.10;;;;;;5155567;27;20281;-67
2023/01/20 06:29:52;;;;;;;;;;;20.40;35.10;;;;;;5155423;27;19964;-67
2023/01/20 06:32:17;;;;;;;;;;;20.30;35.00;;;;;;5151553;27;19931;-67
2023/01/20 06:34:46;;;;;;;;;;;20.40;35.00;;;;;;5134602;27;19919;-67
2023/01/20 06:37:11;;;;;;;;;;;20.20;35.00;;;;;;5134539;27;19933;-67
2023/01/20 06:39:37;;;;;;;;;;;20.40;35.10;;;;;;5116022;27;19920;-67
2023/01/20 06:42:03;;;;;;;;;;;20.30;35.00;;;;;;5116164;27;19927;-67
2023/01/20 06:44:28;;;;;;;;;;;20.30;35.00;;;;;;5116292;27;19919;-67
2023/01/20 06:46:56;;;;;;;;;;;20.30;34.90;;;;;;5116379;27;20278;-67
2023/01/20 06:49:21;;;;;;;;;;;20.30;35.00;;;;;;5115962;27;20402;-67
2023/01/20 06:51:48;;;;;;;;;;;20.30;35.00;;;;;;5115912;27;19927;-67
2023/01/20 06:54:14;;;;;;;;;;;20.30;35.00;;;;;;5116219;27;19919;-67
2023/01/20 06:56:39;;;;;;;;;;;20.30;34.90;;;;;;5133540;27;20064;-67
2023/01/20 06:59:05;;;;;;;;;;;20.30;35.00;;;;;;5113281;27;20014;-67
2023/01/20 07:01:30;;;;;;;;;;;20.30;35.00;;;;;;5117789;27;20511;-67
2023/01/20 07:04:01;;;;;;;;;;;20.30;35.00;;;;;;5115442;27;19927;-67
2023/01/20 07:06:28;;;;;;;;;;;20.30;34.90;;;;;;5108908;27;19923;-67
2023/01/20 07:08:54;;;;;;;;;;;20.30;35.00;;;;;;5076769;27;19986;-67
2023/01/20 07:11:20;;;;;;;;;;;20.30;35.00;;;;;;5097777;27;19993;-67
2023/01/20 07:13:46;;;;;;;;;;;20.30;35.00;;;;;;5104599;27;20588;-67
2023/01/20 07:16:11;;;;;;;;;;;20.30;35.00;;;;;;5086952;28;20382;-67
2023/01/20 07:18:37;;;;;;;;;;;20.30;35.70;;;;;;5086774;28;19924;-67
2023/01/20 07:21:03;;;;;;;;;;;20.30;34.90;;;;;;5086114;27;19931;-67
2023/01/20 07:23:31;;;;;;;;;;;20.30;35.00;;;;;;5088300;28;19924;-67
2023/01/20 07:26:00;;;;;;;;;;;20.30;34.90;;;;;;5091523;27;19923;-67
2023/01/20 07:28:26;;;;;;;;;;;20.30;34.80;;;;;;5106512;28;19934;-68
2023/01/20 07:30:51;;;;;;;;;;;20.30;34.80;;;;;;5086095;27;19920;-67
2023/01/20 07:33:17;;;;;;;;;;;20.30;34.90;;;;;;5107644;27;19924;-67
2023/01/20 07:35:42;;;;;;;;;;;20.30;34.80;;;;;;5090701;28;20014;-67
2023/01/20 07:38:08;;;;;;;;;;;20.30;34.80;;;;;;5106810;27;19986;-67
2023/01/20 07:40:33;;;;;;;;;;;20.30;34.80;;;;;;5093512;28;20041;-67
2023/01/20 07:43:01;;;;;;;;;;;20.30;34.80;;;;;;5093495;27;19924;-67
2023/01/20 07:45:27;;;;;;;;;;;20.30;34.80;;;;;;5113277;27;19946;-67
2023/01/20 07:47:54;;;;;;;;;;;20.30;35.10;;;;;;5088018;27;20457;-67
2023/01/20 07:50:20;;;;;;;;;;;20.30;34.80;;;;;;5089548;28;19938;-67
2023/01/20 07:52:45;;;;;;;;;;;20.30;34.80;;;;;;5085516;28;19928;-67
2023/01/20 07:55:11;;;;;;;;;;;20.30;34.80;;;;;;5083942;28;19924;-67
2023/01/20 07:57:36;;;;;;;;;;;20.30;34.80;;;;;;5091408;28;19931;-67
2023/01/20 08:00:02;;;;;;;;;;;20.30;34.80;;;;;;5106348;28;19923;-67
2023/01/20 08:02:28;;;;;;;;;;;20.30;34.70;;;;;;5105310;28;19976;-67
2023/01/20 08:04:53;;;;;;;;;;;20.20;34.80;;;;;;5107766;28;20339;-67
2023/01/20 08:07:19;;;;;;;;;;;20.30;34.80;;;;;;5105601;28;19924;-68
2023/01/20 08:09:45;;;;;;;;;;;20.30;34.70;;;;;;5107601;28;19949;-67
2023/01/20 08:12:10;;;;;;;;;;;20.20;34.70;;;;;;5107765;28;20386;-67
2023/01/20 08:14:36;;;;;;;;;;;20.30;34.70;;;;;;5111549;28;19930;-68
2023/01/20 08:17:01;;;;;;;;;;;20.20;34.70;;;;;;5111255;28;19932;-67
2023/01/20 08:19:27;;;;;;;;;;;20.20;34.60;;;;;;5109396;28;19931;-67
2023/01/20 08:21:53;;;;;;;;;;;20.30;34.70;;;;;;5112345;28;20022;-67
2023/01/20 08:24:18;;;;;;;;;;;20.20;34.70;;;;;;5112314;28;20356;-68
2023/01/20 08:26:44;;;;;;;;;;;20.20;34.70;;;;;;5109570;28;19923;-67
2023/01/20 08:29:09;;;;;;;;;;;20.30;34.70;;;;;;5114106;28;19923;-67
2023/01/20 08:31:36;;;;;;;;;;;20.20;34.50;;;;;;5113982;28;19927;-67
2023/01/20 08:34:04;;;;;;;;;;;20.20;34.50;;;;;;5105254;28;19970;-68
2023/01/20 08:36:31;;;;;;;;;;;20.20;34.60;;;;;;5103914;28;20600;-68
2023/01/20 08:38:58;;;;;;;;;;;20.20;34.50;;;;;;5107041;28;19961;-70
2023/01/20 08:41:25;;;;;;;;;;;20.20;34.50;;;;;;5106679;28;19972;-70
2023/01/20 08:43:50;;;;;;;;;;;20.20;35.30;;;;;;5105883;27;20524;-69
2023/01/20 08:46:17;;;;;;;;;;;20.10;34.50;;;;;;5109837;27;20286;-70
2023/01/20 08:48:43;;;;;;;;;;;20.20;34.60;;;;;;5109107;27;20440;-70
2023/01/20 08:51:12;;;;;;;;;;;20.20;34.50;;;;;;5108642;27;20049;-70
2023/01/20 08:53:38;;;;;;;;;;;20.20;34.60;;;;;;5112698;27;20036;-70
2023/01/20 08:56:04;;;;;;;;;;;20.20;34.40;;;;;;5110969;27;19985;-69
2023/01/20 08:58:30;;;;;;;;;;;20.20;34.50;;;;;;5106587;27;20297;-71
2023/01/20 09:00:55;;;;;;;;;;;20.20;34.40;;;;;;5114806;27;19923;-71
2023/01/20 09:03:22;;;;;;;;;;;20.20;34.40;;;;;;5100470;27;20016;-70
2023/01/20 09:05:47;;;;;;;;;;;20.20;34.40;;;;;;5114984;27;20053;-70
2023/01/20 09:08:13;;;;;;;;;;;20.20;34.40;;;;;;5115152;27;20339;-70
2023/01/20 09:10:39;;;;;;;;;;;20.20;34.40;;;;;;5111748;27;19975;-69
2023/01/20 09:13:05;;;;;;;;;;;20.20;34.40;;;;;;5112754;27;19923;-70
2023/01/20 09:15:30;;;;;;;;;;;20.20;34.40;;;;;;5115317;27;20799;-71
2023/01/20 09:17:57;;;;;;;;;;;20.20;34.30;;;;;;5110156;27;19934;-70
2023/01/20 09:20:24;;;;;;;;;;;20.20;34.30;;;;;;5108876;27;20053;-70
2023/01/20 09:22:50;;;;;;;;;;;20.20;34.30;;;;;;5111333;27;20010;-70
2023/01/20 09:25:18;;;;;;;;;;;20.20;34.30;;;;;;5110630;27;20014;-70
2023/01/20 09:27:44;;;;;;;;;;;20.20;34.30;;;;;;5113452;27;19984;-70
2023/01/20 09:30:09;;;;;;;;;;;20.20;34.30;;;;;;5113843;27;19924;-69
2023/01/20 09:32:35;;;;;;;;;;;20.20;34.20;;;;;;5115109;27;19930;-71
2023/01/20 09:35:01;;;;;;;;;;;20.20;34.20;;;;;;5112799;27;19956;-70
2023/01/20 09:45:55;;;;;;;;;;;20.20;34.20;;;;;;5110374;27;19931;-69
2023/01/20 09:53:59;;;;;;;;;;;20.10;34.20;;;;;;5083299;27;19927;-70
2023/01/20 09:56:26;;;;;;;;;;;20.10;34.20;;;;;;5092614;28;20328;-69
2023/01/20 09:58:56;;;;;;;;;;;20.10;34.30;;;;;;5090032;27;19931;-70
2023/01/20 10:01:33;;;;;;;;;;;20.10;34.20;;;;;;5093278;27;19971;-69
2023/01/20 10:06:45;;;;;;;;;;;20.10;34.20;;;;;;5071101;27;19935;-68
2023/01/20 10:12:01;;;;;;;;;;;20.10;34.20;;;;;;5072791;27;19952;-66
2023/01/20 10:14:33;;;;;;;;;;;20.10;34.20;;;;;;5066613;28;19924;-70
2023/01/20 10:19:55;;;;;;;;;;;20.20;34.20;;;;;;5136016;27;19926;-69
2023/01/20 10:22:26;;;;;;;;;;;20.20;34.20;;;;;;5121022;27;19927;-72
2023/01/20 10:24:58;;;;;;;;;;;20.20;34.20;;;;;;5127367;27;19927;-73
2023/01/20 10:27:28;;;;;;;;;;;20.10;34.10;;;;;;5144984;27;19915;-73
2023/01/20 10:29:57;;;;;;;;;;;20.10;34.10;;;;;;5132392;27;20026;-71
2023/01/20 10:32:32;;;;;;;;;;;20.10;34.10;;;;;;5130651;27;20332;-73
2023/01/20 10:35:02;;;;;;;;;;;20.20;34.20;;;;;;5141271;27;19961;-71
2023/01/20 10:37:28;;;;;;;;;;;20.10;34.10;;;;;;5128969;27;20368;-74
2023/01/20 10:40:00;;;;;;;;;;;20.10;34.10;;;;;;5128517;27;20576;-72
2023/01/20 10:42:27;;;;;;;;;;;20.10;34.00;;;;;;5122749;27;19942;-72
2023/01/20 10:44:57;;;;;;;;;;;20.10;34.00;;;;;;5125840;27;19926;-73
2023/01/20 10:47:27;;;;;;;;;;;20.10;34.10;;;;;;5130611;27;20397;-75
2023/01/20 10:50:12;;;;;;;;;;;20.10;34.10;;;;;;5129047;27;19915;-74
2023/01/20 10:55:26;;;;;;;;;;;20.10;34.10;;;;;;5086724;27;19931;-70
2023/01/20 10:57:54;;;;;;;;;;;20.20;34.10;;;;;;5070300;28;20013;-72
2023/01/20 11:00:24;;;;;;;;;;;20.20;34.00;;;;;;5064373;28;19983;-72
2023/01/20 11:02:51;;;;;;;;;;;20.10;34.00;;;;;;5070649;28;19917;-69
2023/01/20 11:05:21;;;;;;;;;;;20.20;34.00;;;;;;5072511;28;20003;-69
2023/01/20 11:07:48;;;;;;;;;;;20.20;34.20;;;;;;5067555;28;19925;-68
2023/01/20 11:10:15;;;;;;;;;;;20.20;34.20;;;;;;5069934;28;20634;-69
2023/01/20 11:12:42;;;;;;;;;;;20.20;34.20;;;;;;5072899;28;19924;-69
2023/01/20 11:15:15;;;;;;;;;;;20.20;34.20;;;;;;5071187;28;20398;-69
2023/01/20 11:17:41;;;;;;;;;;;20.20;34.20;;;;;;5074216;28;19936;-69
2023/01/20 11:20:13;;;;;;;;;;;20.20;34.10;;;;;;5076079;28;19923;-69
2023/01/20 11:22:44;;;;;;;;;;;20.20;34.10;;;;;;5094958;28;20395;-69
2023/01/20 11:25:19;;;;;;;;;;;20.10;34.00;;;;;;5073691;28;19924;-69
2023/01/20 11:27:45;;;;;;;;;;;20.20;34.10;;;;;;5079108;28;19928;-69
2023/01/20 11:30:27;;;;;;;;;;;20.10;34.10;;;;;;5073386;28;19959;-69
2023/01/20 11:33:12;;;;;;;;;;;20.10;34.00;;;;;;5077925;28;19990;-69
2023/01/20 11:35:38;;;;;;;;;;;20.20;34.60;;;;;;5070774;28;19920;-70
2023/01/20 11:38:20;;;;;;;;;;;20.10;33.90;;;;;;5075726;28;20089;-72
2023/01/20 11:40:50;;;;;;;;;;;20.10;34.00;;;;;;5073478;28;19976;-72
2023/01/20 11:43:26;;;;;;;;;;;20.10;34.00;;;;;;5077615;28;20820;-72
2023/01/20 11:46:07;;;;;;;;;;;20.10;34.00;;;;;;5077493;28;19928;-72
2023/01/20 11:48:33;;;;;;;;;;;20.10;33.90;;;;;;5075904;28;20662;-71
2023/01/20 11:51:00;;;;;;;;;;;20.10;34.70;;;;;;5070131;28;20058;-72
2023/01/20 11:53:27;;;;;;;;;;;20.00;33.90;;;;;;5078118;28;19977;-73
2023/01/20 11:55:55;;;;;;;;;;;20.10;34.00;;;;;;5077392;28;19977;-73
2023/01/20 11:58:22;;;;;;;;;;;20.10;33.90;;;;;;5079015;28;19974;-71
2023/01/20 12:00:49;;;;;;;;;;;20.10;33.80;;;;;;5093885;28;19920;-73
2023/01/20 12:06:07;;;;;;;;;;;20.10;33.80;;;;;;5090144;27;19926;-71
2023/01/20 12:08:39;;;;;;;;;;;20.10;33.70;;;;;;5074822;28;19928;-70
2023/01/20 12:11:05;;;;;;;;;;;20.10;33.90;;;;;;5078469;28;19936;-69
2023/01/20 12:14:18;;;;;;;;;;;20.00;33.90;;;;;;5110302;27;20027;-70
2023/01/20 12:16:26;;;;;;;;;;;20.10;33.80;;;;;;5062590;28;19932;-71
2023/01/20 12:18:56;;;;;;;;;;;20.10;33.80;;;;;;5072821;28;19928;-69
2023/01/20 12:21:25;;;;;;;;;;;20.00;33.70;;;;;;5077139;28;19964;-69
2023/01/20 12:23:59;;;;;;;;;;;20.10;33.70;;;;;;5078355;28;19975;-68
2023/01/20 12:26:24;;;;;;;;;;;20.10;33.80;;;;;;5080521;28;19924;-69
2023/01/20 12:31:31;;;;;;;;;;;20.10;33.70;;;;;;5113459;27;1866224;-69
2023/01/20 12:44:49;;;;;;;;;;;20.10;33.70;;;;;;5081885;27;20271;-69
2023/01/20 12:47:28;;;;;;;;;;;20.10;33.70;;;;;;5102191;28;19940;-69
2023/01/20 12:50:13;;;;;;;;;;;20.10;33.70;;;;;;5068480;28;19928;-69
2023/01/20 12:52:45;;;;;;;;;;;20.10;33.60;;;;;;5100705;28;19927;-68
2023/01/20 12:55:30;;;;;;;;;;;20.10;33.70;;;;;;5066990;28;19971;-66
2023/01/20 13:00:59;;;;;;;;;;;20.30;34.40;;;;;;5067512;27;19932;-66
2023/01/20 13:09:06;;;;;;;;;;;20.70;35.00;;;;;;5081653;27;1865572;-69
2023/01/20 13:11:52;;;;;;;;;;;20.80;34.90;;;;;;5121278;27;19927;-67
2023/01/20 13:17:21;;;;;;;;;;;21.70;34.10;;;;;;5131871;27;19922;-66
2023/01/20 13:19:48;;;;;;;;;;;22.20;33.60;;;;;;5113802;27;20290;-69
2023/01/20 13:22:16;;;;;;;;;;;22.50;33.00;;;;;;5118500;27;21017;-69
2023/01/20 13:24:44;;;;;;;;;;;22.80;33.00;;;;;;5111196;27;19930;-68
2023/01/20 13:27:10;;;;;;;;;;;22.70;33.20;;;;;;5107866;27;19924;-70
2023/01/20 13:32:25;;;;;;;;;;;22.60;33.80;;;;;;5077316;27;19930;-69
2023/01/20 13:34:50;;;;;;;;;;;22.50;35.20;;;;;;5105446;28;19928;-69
2023/01/20 13:37:25;;;;;;;;;;;22.30;34.60;;;;;;5063299;28;19935;-70
2023/01/20 13:39:52;;;;;;;;;;;22.20;34.60;;;;;;5109171;28;19931;-68
2023/01/20 13:42:37;;;;;;;;;;;22.10;34.30;;;;;;5073423;28;19920;-67
2023/01/20 13:47:56;;;;;;;;;;;21.90;34.70;;;;;;5084496;27;20363;-70
2023/01/20 13:53:04;;;;;;;;;;;22.00;34.60;;;;;;5066945;28;19946;-70
2023/01/20 13:58:33;;;;;;;;;;;22.20;34.60;;;;;;5085845;27;19942;-70
2023/01/20 14:01:01;;;;;;;;;;;22.20;34.50;;;;;;5085254;28;20286;-69
2023/01/20 14:08:48;;;;;;;;;;;22.40;34.60;;;;;;5073570;27;1868389;-67
2023/01/20 14:11:15;;;;;;;;;;;22.30;34.50;;;;;;5119800;27;19986;-67
2023/01/20 14:13:42;;;;;;;;;;;22.20;34.10;;;;;;5116333;27;19949;-67
2023/01/20 14:16:28;;;;;;;;;;;22.10;34.30;;;;;;5116923;27;20150;-68
2023/01/20 14:18:56;;;;;;;;;;;21.90;34.20;;;;;;5109639;27;19924;-67
2023/01/20 14:21:23;;;;;;;;;;;21.90;34.30;;;;;;5130494;27;19928;-69
2023/01/20 14:23:49;;;;;;;;;;;21.80;34.20;;;;;;5116247;27;20010;-69
2023/01/20 14:26:24;;;;;;;;;;;21.80;34.30;;;;;;5136191;27;20374;-70
2023/01/20 14:28:50;;;;;;;;;;;21.70;34.10;;;;;;5119440;27;19980;-69
2023/01/20 14:36:36;;;;;;;;;;;21.60;34.30;;;;;;5093808;27;19923;-69
2023/01/20 14:39:02;;;;;;;;;;;21.60;34.20;;;;;;5069919;28;20482;-69
2023/01/20 14:41:32;;;;;;;;;;;21.60;34.00;;;;;;5073873;28;19962;-71
2023/01/20 14:43:58;;;;;;;;;;;21.70;34.10;;;;;;5071840;28;19928;-70
2023/01/20 14:46:24;;;;;;;;;;;21.70;33.90;;;;;;5079845;28;19928;-70
2023/01/20 14:48:51;;;;;;;;;;;21.80;33.70;;;;;;5068656;28;20378;-72
2023/01/20 14:51:20;;;;;;;;;;;21.80;33.80;;;;;;5073947;28;19925;-70
2023/01/20 14:53:47;;;;;;;;;;;21.80;33.60;;;;;;5079866;28;19928;-70
2023/01/20 14:56:17;;;;;;;;;;;21.80;33.60;;;;;;5071149;28;20008;-72
2023/01/20 14:58:53;;;;;;;;;;;21.70;33.50;;;;;;5076358;28;19921;-70
2023/01/20 15:01:21;;;;;;;;;;;21.70;33.50;;;;;;5069141;28;19920;-70
2023/01/20 15:03:53;;;;;;;;;;;21.70;33.50;;;;;;5073986;28;19966;-72
2023/01/20 15:06:20;;;;;;;;;;;21.70;33.50;;;;;;5074560;28;19978;-70
2023/01/20 15:08:47;;;;;;;;;;;21.60;33.40;;;;;;5075410;28;19920;-70
2023/01/20 15:21:55;;;;;;;;;;;21.10;33.50;;;;;;5090571;27;1868881;-67
2023/01/20 15:24:22;;;;;;;;;;;21.00;33.70;;;;;;5134404;27;19966;-68
2023/01/20 15:26:49;;;;;;;;;;;21.00;34.00;;;;;;5137741;27;19919;-68
2023/01/20 15:29:20;;;;;;;;;;;21.00;34.00;;;;;;5137604;27;19968;-69
2023/01/20 15:31:46;;;;;;;;;;;20.90;34.10;;;;;;5154494;27;20475;-68
2023/01/20 15:34:12;;;;;;;;;;;20.80;35.00;;;;;;5134171;27;19918;-69
2023/01/20 15:36:39;;;;;;;;;;;20.80;34.20;;;;;;5137115;27;19926;-67
2023/01/20 15:39:09;;;;;;;;;;;20.80;34.40;;;;;;5137585;27;19919;-68
2023/01/20 15:41:34;;;;;;;;;;;20.80;34.20;;;;;;5138434;27;19923;-66
2023/01/20 15:44:00;;;;;;;;;;;20.80;34.10;;;;;;5133730;27;19926;-67
2023/01/20 15:46:26;;;;;;;;;;;20.70;34.50;;;;;;5152879;27;19922;-68
2023/01/20 15:48:51;;;;;;;;;;;20.70;34.70;;;;;;5133283;27;21228;-69
2023/01/20 15:51:20;;;;;;;;;;;20.70;34.50;;;;;;5133051;27;19927;-71
2023/01/20 15:53:46;;;;;;;;;;;20.60;34.60;;;;;;5154725;27;19970;-70
2023/01/20 15:56:17;;;;;;;;;;;20.60;34.70;;;;;;5136308;27;19923;-69
2023/01/20 15:58:42;;;;;;;;;;;20.50;34.70;;;;;;5154727;27;20389;-70
2023/01/20 16:01:11;;;;;;;;;;;20.50;34.80;;;;;;5134170;27;19940;-71
2023/01/20 16:03:36;;;;;;;;;;;20.40;34.80;;;;;;5160536;27;20586;-71